North Island Naval Air Station-Halsey Field
KNZY : now visible

Airfield :











YOU CAN JOIN US ON...

 
LOGIN :

Register | Disclaimer

   EN    FR    IT 

 









Legend :    VFR   Marginal VFR   IFR   Intensive IFR   Very Intensive IFR
Visi :
Ceiling :
>= 8 km
>= 3000ft
5 to 8 km
1000 to 3000 ft
1500m to 5 km
500 to 1000 ft
800 to 1500m
200 to 500 ft
< 800m
< 200 ft
Symbols :   Thunderstorms  Fog  Heavy snow  Heavy precipitations  Wind > 20 kt







- Airport Elevation : 26 ft


KNZY - North Island Naval Air Station-Halsey Field

CURRENT METAR :
  • 181052Z 00000KT 10SM FEW017 17/15 A2990 RMK AO2 SLP123 T01720150

EXPIRED METARs :
  • 180952Z 00000KT 10SM SCT017 18/15 A2990 RMK AO2 SLP123 T01780150
  • 180852Z 00000KT 10SM BKN017 18/16 A2990 RMK AO2 SLP126 T01830161 55002

TAF TAF KNZY
Valid from the 18 at 07:00 until the 19 at 07:00 UTC


1807/1907 VRB06KT 9999 SCT015 QNH2986INS
TEMPO 1807/1810 BKN015
FM181000 VRB06KT 9999 BKN015 QNH2987INS
TEMPO 1810/1816 SCT015
BECMG 1817/1819 23008KT 9999 SCT018 QNH2981INS
FM190100 VRB06KT 9999 SCT014 QNH2982INS
TEMPO 1901/1907 8000 BR BKN014 T18/1812Z T24/1823Z FS30145
No reported NOTAMs for that airfield.



MET'MAP, your aeronautical weather chart ! - Copyright ORBIFLY December 2007 - Disclaimer

ORBIFLY MET'MAP TEAM :

Programming & Development : Alexandra Zaïnal
Concept & Development : Baudouin d'Aumeries
Co-Development & Prog : Marc-Olivier Méhu
Technical & hardware support : Manuel Goepfert

Contact : metmap@orbifly.com




SOURCES & CREDITS :

   NOAA       Earth
Advisory